Time;durP1;ratioP1;P1;durP2;ratioP2;P2;SDS_P1;SDS_P2;PMS_P1;PMS_P2;Temp;Humidity;BMP_temperature;BMP_pressure;BME280_temperature;BME280_humidity;BME280_pressure;Samples;Min_cycle;Max_cycle;Signal;HPM_P1;HPM_P2
2023/09/23 00:03:45;;;;;;;12.13;4.12;;;;;;;23.36;56.87;98975.19;7553578;33;40879;-80
2023/09/23 00:08:03;;;;;;;11.65;4.45;;;;;;;23.53;56.77;98988.50;7553588;33;38792;-80
2023/09/23 00:12:19;;;;;;;12.57;4.53;;;;;;;23.15;58.44;98975.72;7553182;33;37166;-80
2023/09/23 00:16:35;;;;;;;14.80;4.75;;;;;;;22.80;60.15;98974.78;7553544;33;39229;-80
2023/09/23 00:20:52;;;;;;;14.43;4.35;;;;;;;23.09;58.50;98980.78;7553299;33;39987;-80
2023/09/23 00:25:09;;;;;;;8.57;4.53;;;;;;;22.70;59.38;98975.44;7553116;33;37997;-81
2023/09/23 00:29:28;;;;;;;14.25;4.37;;;;;;;22.71;58.81;98971.44;7556374;33;37082;-80
2023/09/23 00:33:45;;;;;;;12.40;4.07;;;;;;;22.79;58.41;98967.62;7771413;27;40081;-81
2023/09/23 00:38:02;;;;;;;15.48;4.50;;;;;;;22.66;57.92;98963.44;7554160;33;39740;-81
2023/09/23 00:42:21;;;;;;;10.10;4.25;;;;;;;22.47;56.11;98972.66;7556278;33;38817;-81
2023/09/23 00:46:39;;;;;;;11.05;4.20;;;;;;;22.47;55.75;98967.94;7556275;33;37152;-81
2023/09/23 00:50:56;;;;;;;15.30;4.55;;;;;;;22.64;55.10;98954.69;7556367;33;39175;-80
2023/09/23 00:55:14;;;;;;;10.23;4.40;;;;;;;22.26;57.46;98978.63;7556095;33;39949;-81
2023/09/23 00:59:32;;;;;;;11.43;4.90;;;;;;;22.26;61.41;98973.06;7556015;33;37916;-81
2023/09/23 01:03:49;;;;;;;12.32;4.53;;;;;;;22.19;61.58;98972.97;7555802;33;38110;-81
2023/09/23 01:08:20;;;;;;;16.15;5.18;;;;;;;22.25;61.25;98982.56;7555939;33;39362;-81
2023/09/23 01:12:36;;;;;;;14.32;4.57;;;;;;;22.02;62.23;98986.13;7555918;33;39989;-83
2023/09/23 01:16:53;;;;;;;11.88;4.68;;;;;;;22.16;60.79;98966.16;7555794;33;37869;-81
2023/09/23 01:21:09;;;;;;;13.60;4.93;;;;;;;21.82;61.38;98970.69;7542387;33;37838;-80
2023/09/23 01:25:26;;;;;;;12.65;4.18;;;;;;;22.01;60.01;98970.66;7555849;33;39125;-81
2023/09/23 01:29:42;;;;;;;18.33;5.32;;;;;;;21.96;61.25;98979.28;7555519;33;40866;-80
2023/09/23 01:33:58;;;;;;;11.00;4.68;;;;;;;21.80;61.70;98981.34;7555251;33;38132;-82
2023/09/23 01:38:15;;;;;;;12.85;4.62;;;;;;;21.73;62.18;98984.78;7555454;33;37693;-80
2023/09/23 01:42:32;;;;;;;17.52;5.03;;;;;;;21.89;61.52;98991.06;7555355;33;39051;-81
2023/09/23 01:46:49;;;;;;;14.25;5.00;;;;;;;21.96;61.42;99004.28;7555599;33;40820;-82
2023/09/23 01:51:06;;;;;;;9.20;4.25;;;;;;;21.82;62.39;99042.81;7555051;33;37690;-80
2023/09/23 01:55:22;;;;;;;12.85;5.20;;;;;;;21.39;64.50;99056.56;7555221;33;37379;-82
2023/09/23 01:59:40;;;;;;;15.95;5.30;;;;;;;21.63;63.54;99033.34;7555409;33;40131;-81
2023/09/23 02:03:58;;;;;;;14.45;4.70;;;;;;;21.93;62.17;99054.94;7542295;33;39987;-81
2023/09/23 02:08:15;;;;;;;12.52;4.18;;;;;;;21.62;63.18;99062.25;7555367;33;37859;-81
2023/09/23 02:12:33;;;;;;;12.98;4.40;;;;;;;21.70;62.72;99057.66;7555243;33;37927;-80
2023/09/23 02:16:49;;;;;;;11.15;4.80;;;;;;;21.72;62.60;99061.66;7555037;33;39395;-81
2023/09/23 02:21:07;;;;;;;13.20;4.32;;;;;;;21.85;62.05;99065.09;7555131;33;39760;-81
2023/09/23 02:25:24;;;;;;;12.57;4.62;;;;;;;21.89;61.65;99057.66;7555004;33;38719;-80
2023/09/23 02:29:41;;;;;;;13.82;4.80;;;;;;;21.91;61.52;99051.75;7555122;33;37988;-81
2023/09/23 02:33:58;;;;;;;11.25;5.07;;;;;;;21.83;61.08;99042.44;7554693;33;39144;-81
2023/09/23 02:38:14;;;;;;;10.15;4.68;;;;;;;22.27;58.93;99036.59;7554948;33;40748;-81
2023/09/23 02:42:30;;;;;;;17.73;4.60;;;;;;;22.19;59.26;99056.22;7554288;33;38145;-82
2023/09/23 02:46:48;;;;;;;18.75;4.90;;;;;;;22.27;58.74;99052.44;7554873;33;37927;-81
2023/09/23 02:51:04;;;;;;;12.18;4.35;;;;;;;22.24;58.27;99058.72;7540880;33;39524;-82
2023/09/23 02:55:21;;;;;;;10.80;4.57;;;;;;;21.98;60.03;99056.63;7554795;33;39981;-80
2023/09/23 02:59:41;;;;;;;14.95;4.93;;;;;;;22.00;59.94;99068.16;7554684;33;38793;-81
2023/09/23 03:04:06;;;;;;;11.32;4.75;;;;;;;22.05;59.96;99054.00;7554746;33;36929;-81
2023/09/23 03:08:23;;;;;;;19.67;4.30;;;;;;;22.10;59.81;99046.16;7554490;33;39520;-81
2023/09/23 03:12:51;;;;;;;10.82;5.03;;;;;;;21.96;60.00;99057.00;7554422;33;40653;-81
2023/09/23 03:17:09;;;;;;;14.02;5.50;;;;;;;21.89;61.07;99085.41;7554459;33;38003;-82
2023/09/23 03:21:25;;;;;;;11.10;4.68;;;;;;;21.94;61.29;99095.41;7554472;33;39116;-81
2023/09/23 03:25:46;;;;;;;17.23;4.93;;;;;;;22.06;60.93;99075.00;7554520;33;39823;-81
2023/09/23 03:30:04;;;;;;;11.48;4.75;;;;;;;21.92;61.19;99097.72;7554362;33;40092;-81
2023/09/23 03:34:22;;;;;;;16.30;4.85;;;;;;;21.89;61.09;99093.72;7553925;33;37678;-81
2023/09/23 03:38:38;;;;;;;11.45;4.53;;;;;;;21.81;60.86;99085.63;7554333;33;37086;-81
2023/09/23 03:42:55;;;;;;;16.23;4.93;;;;;;;21.82;60.87;99084.44;7554132;33;39495;-82
2023/09/23 03:47:11;;;;;;;10.30;4.30;;;;;;;21.89;60.58;99081.81;7554128;33;40762;-81
2023/09/23 03:51:28;;;;;;;10.90;4.55;;;;;;;21.70;61.36;99097.28;7554040;33;38570;-81
2023/09/23 03:55:44;;;;;;;16.20;5.05;;;;;;;21.73;61.28;99087.41;7554108;33;37898;-80
2023/09/23 04:00:01;;;;;;;14.73;5.47;;;;;;;21.71;61.46;99090.59;7553428;33;39268;-82
2023/09/23 04:04:17;;;;;;;15.23;5.30;;;;;;;21.60;61.88;99092.31;7553517;33;39742;-81
2023/09/23 04:08:34;;;;;;;13.68;4.40;;;;;;;21.60;61.80;99108.16;7553774;33;38639;-82
2023/09/23 04:12:52;;;;;;;18.75;4.72;;;;;;;21.33;62.32;99105.94;7553746;33;37279;-82
2023/09/23 04:17:10;;;;;;;11.40;4.25;;;;;;;21.44;61.73;99102.59;7553698;33;40111;-82
2023/09/23 04:21:27;;;;;;;8.38;3.42;;;;;;;21.61;61.04;99101.41;7553376;33;40979;-81
2023/09/23 04:25:43;;;;;;;16.75;4.18;;;;;;;21.57;61.09;99098.56;7553338;33;39353;-81
2023/09/23 04:30:11;;;;;;;7.47;3.62;;;;;;;21.58;60.93;99094.66;7553124;33;37897;-81
2023/09/23 04:34:29;;;;;;;11.43;3.67;;;;;;;21.32;62.04;99098.00;7553147;33;39085;-81
2023/09/23 04:38:45;;;;;;;10.45;3.33;;;;;;;21.49;61.36;99096.81;7553108;33;39634;-81
2023/09/23 04:43:03;;;;;;;9.68;3.25;;;;;;;21.23;61.80;99095.41;7552651;33;37921;-82
2023/09/23 04:47:19;;;;;;;7.40;3.17;;;;;;;21.06;61.99;99113.22;7552991;33;38087;-82
2023/09/23 04:51:36;;;;;;;4.95;2.92;;;;;;;21.13;61.36;99115.38;7552980;33;39325;-81
2023/09/23 04:55:52;;;;;;;6.03;2.62;;;;;;;20.97;61.41;99126.44;7552458;33;40881;-85
2023/09/23 05:00:10;;;;;;;4.62;2.50;;;;;;;21.06;61.37;99129.84;7552026;33;37852;-81
2023/09/23 05:04:27;;;;;;;5.80;2.67;;;;;;;21.06;61.31;99151.19;7526946;33;37954;-81
2023/09/23 05:08:43;;;;;;;9.93;2.72;;;;;;;21.07;60.88;99166.69;7526922;33;39406;-81
2023/09/23 05:13:00;;;;;;;7.62;2.67;;;;;;;21.08;60.80;99176.59;7546466;33;40009;-75
2023/09/23 05:17:17;;;;;;;9.25;2.58;;;;;;;20.97;61.33;99174.38;7555892;33;38794;-72
2023/09/23 05:21:33;;;;;;;3.55;2.28;;;;;;;20.89;61.56;99186.41;7555373;33;36780;-76
2023/09/23 05:25:50;;;;;;;5.57;2.20;;;;;;;21.00;61.49;99209.66;7555609;33;39179;-76
2023/09/23 05:30:10;;;;;;;7.22;2.50;;;;;;;20.96;61.46;99194.91;7555740;33;40048;-83
2023/09/23 05:34:27;;;;;;;10.65;2.85;;;;;;;20.90;61.13;99201.88;7542261;33;38704;-82
2023/09/23 05:38:43;;;;;;;9.38;2.92;;;;;;;20.74;61.21;99218.47;7568343;33;37927;-82
2023/09/23 05:43:00;;;;;;;5.90;2.80;;;;;;;21.00;60.09;99239.34;7568126;33;39365;-82
2023/09/23 05:47:16;;;;;;;6.72;2.92;;;;;;;20.59;61.61;99255.19;7561372;33;40110;-83
2023/09/23 05:51:33;;;;;;;4.35;2.22;;;;;;;20.04;63.19;99250.06;7555381;33;38127;-81
2023/09/23 05:55:50;;;;;;;4.45;2.47;;;;;;;20.24;62.53;99262.09;7548272;33;37889;-81
2023/09/23 06:00:12;;;;;;;4.28;2.35;;;;;;;19.79;63.27;99285.22;7546705;33;39466;-81
2023/09/23 06:04:30;;;;;;;4.57;2.42;;;;;;;19.77;63.12;99298.59;7554755;33;40158;-81
2023/09/23 06:08:50;;;;;;;5.75;2.80;;;;;;;19.58;63.04;99318.47;7555160;33;38761;-78
2023/09/23 06:13:07;;;;;;;3.67;2.37;;;;;;;19.47;63.66;99325.59;7553841;33;37368;-71
2023/09/23 06:17:28;;;;;;;7.90;2.78;;;;;;;19.41;64.71;99336.06;7555251;33;39148;-70
2023/09/23 06:21:45;;;;;;;3.37;2.17;;;;;;;19.76;62.79;99334.88;7555045;33;40827;-74
2023/09/23 06:26:02;;;;;;;7.40;2.50;;;;;;;19.02;64.44;99332.72;7552973;33;38519;-76
2023/09/23 06:30:19;;;;;;;5.85;2.60;;;;;;;18.97;65.35;99341.22;7554968;33;37080;-76
2023/09/23 06:34:36;;;;;;;3.30;2.33;;;;;;;19.30;64.69;99351.47;7554909;33;40189;-81
2023/09/23 06:38:52;;;;;;;6.07;2.50;;;;;;;19.45;64.91;99364.62;7541999;33;40055;-84
2023/09/23 06:43:09;;;;;;;6.40;2.33;;;;;;;19.12;66.82;99373.72;7554795;33;38629;-83
2023/09/23 06:47:26;;;;;;;9.93;2.50;;;;;;;19.13;66.84;99380.88;7541917;33;37778;-81
2023/09/23 06:51:42;;;;;;;7.55;2.95;;;;;;;19.25;66.42;99371.03;7554985;33;40080;-84
2023/09/23 06:55:58;;;;;;;3.67;2.60;;;;;;;19.32;66.21;99374.06;7554839;33;40125;-84
2023/09/23 07:00:16;;;;;;;4.70;3.08;;;;;;;19.27;65.23;99388.88;7554720;33;38677;-84
2023/09/23 07:04:32;;;;;;;4.28;2.72;;;;;;;18.72;67.31;99382.50;7554766;33;37847;-83
2023/09/23 07:08:49;;;;;;;4.62;2.70;;;;;;;19.17;66.04;99369.16;7554760;33;39297;-84
2023/09/23 07:13:06;;;;;;;5.53;3.05;;;;;;;19.00;66.56;99376.44;7554762;33;40689;-85
2023/09/23 07:17:27;;;;;;;6.70;3.28;;;;;;;18.71;67.75;99402.16;7554838;33;38751;-84
2023/09/23 07:21:44;;;;;;;5.62;3.10;;;;;;;19.14;66.40;99429.47;7554629;33;36876;-84
2023/09/23 07:26:01;;;;;;;5.25;2.90;;;;;;;18.88;67.20;99453.72;7554733;33;40104;-83
2023/09/23 07:30:17;;;;;;;6.75;2.87;;;;;;;18.52;67.70;99457.81;7553585;33;39976;-83
2023/09/23 07:34:34;;;;;;;6.50;3.30;;;;;;;18.50;68.47;99463.66;7552650;33;38492;-84
2023/09/23 07:38:50;;;;;;;6.35;3.35;;;;;;;18.67;69.10;99487.59;7553391;33;38184;-83
2023/09/23 07:43:07;;;;;;;6.07;3.15;;;;;;;18.87;68.69;99529.44;7553437;33;39415;-84
2023/09/23 07:47:24;;;;;;;7.60;3.58;;;;;;;18.26;70.64;99536.00;7553375;33;40640;-85
2023/09/23 07:51:42;;;;;;;7.37;3.70;;;;;;;18.79;69.44;99521.97;7551853;33;39217;-84
2023/09/23 07:55:59;;;;;;;6.90;3.58;;;;;;;19.16;68.74;99505.69;7549511;33;37866;-84
2023/09/23 08:00:17;;;;;;;6.80;3.50;;;;;;;19.19;69.14;99500.28;7553037;33;39321;-84
2023/09/23 08:04:34;;;;;;;10.45;3.87;;;;;;;19.29;69.18;99505.41;7552934;33;39939;-84
2023/09/23 08:08:54;;;;;;;8.85;3.17;;;;;;;19.46;68.66;99476.03;7553835;33;37899;-85
2023/09/23 08:13:11;;;;;;;8.68;3.85;;;;;;;19.50;68.02;99452.87;7552506;33;37093;-84
2023/09/23 08:17:27;;;;;;;7.43;3.65;;;;;;;19.61;67.75;99422.03;7552529;33;40188;-83
2023/09/23 08:21:45;;;;;;;7.22;3.30;;;;;;;19.70;67.91;99392.34;7553553;33;40773;-84
2023/09/23 08:26:04;;;;;;;8.82;4.20;;;;;;;19.91;67.41;99378.47;7553422;33;37583;-74
2023/09/23 08:30:21;;;;;;;8.25;3.70;;;;;;;20.20;66.48;99360.81;7553815;33;36133;-74
2023/09/23 08:34:37;;;;;;;6.00;3.17;;;;;;;20.40;66.94;99349.94;7553148;33;39632;-76
2023/09/23 08:38:54;;;;;;;4.75;3.03;;;;;;;20.59;66.04;99329.97;7553060;33;40678;-77
2023/09/23 08:43:10;;;;;;;6.47;3.72;;;;;;;21.05;65.39;99304.78;7553063;33;39493;-84
2023/09/23 08:47:28;;;;;;;7.45;3.28;;;;;;;21.01;64.14;99333.19;7553843;33;37045;-85
2023/09/23 08:51:45;;;;;;;4.25;2.47;;;;;;;21.15;63.52;99359.69;7555261;33;39067;-88
2023/09/23 08:56:02;;;;;;;4.87;2.92;;;;;;;20.95;62.35;99367.84;7556146;33;40714;-84
2023/09/23 09:00:18;;;;;;;5.68;2.80;;;;;;;20.71;64.10;99392.84;7556115;33;38706;-86
2023/09/23 09:04:36;;;;;;;5.78;3.05;;;;;;;20.05;66.52;99392.75;7556097;33;38129;-86
2023/09/23 09:08:52;;;;;;;5.43;3.47;;;;;;;20.93;65.83;99397.06;7556227;33;39306;-86
2023/09/23 09:13:08;;;;;;;5.40;3.33;;;;;;;20.90;65.00;99415.19;7556022;33;40029;-87
2023/09/23 09:17:25;;;;;;;7.18;3.12;;;;;;;20.63;63.86;99433.38;7556023;33;38121;-86
2023/09/23 09:21:41;;;;;;;4.10;2.45;;;;;;;20.86;65.24;99446.72;7555989;33;36872;-83
2023/09/23 09:25:58;;;;;;;3.00;2.20;;;;;;;21.29;60.60;99448.78;7556039;33;40120;-84
2023/09/23 09:30:15;;;;;;;3.50;2.40;;;;;;;20.97;60.86;99443.13;7555758;33;40841;-84
2023/09/23 09:34:36;;;;;;;2.90;2.53;;;;;;;20.62;63.12;99448.38;7555619;33;36869;-83
2023/09/23 09:38:54;;;;;;;5.78;3.00;;;;;;;20.36;63.66;99457.81;7553296;33;37774;-83
2023/09/23 09:43:11;;;;;;;4.05;2.72;;;;;;;19.98;64.85;99467.22;7552995;33;39311;-83
2023/09/23 09:47:28;;;;;;;7.18;3.03;;;;;;;20.25;63.88;99467.72;7554209;33;39759;-83
2023/09/23 09:51:48;;;;;;;4.00;3.00;;;;;;;20.14;63.89;99467.34;7554328;33;38816;-83
2023/09/23 09:56:06;;;;;;;5.75;3.65;;;;;;;20.13;64.40;99467.69;7554243;33;37054;-83
2023/09/23 10:04:44;;;;;;;5.97;3.28;;;;;;;19.67;66.71;99470.44;7553765;33;40769;-84
2023/09/23 10:09:13;;;;;;;5.00;3.22;;;;;;;19.50;67.42;99480.50;7553801;33;37836;-83
2023/09/23 10:13:31;;;;;;;6.78;3.58;;;;;;;19.50;66.25;99477.75;7552616;33;37639;-83
2023/09/23 10:17:53;;;;;;;7.35;3.60;;;;;;;19.43;67.13;99488.56;7553922;33;39405;-83
2023/09/23 10:22:18;;;;;;;8.05;4.03;;;;;;;19.27;66.91;99484.81;7552648;33;39661;-83
2023/09/23 10:26:39;;;;;;;5.60;3.47;;;;;;;19.66;67.00;99486.25;7553415;33;38763;-83
2023/09/23 10:31:06;;;;;;;7.03;3.90;;;;;;;19.72;66.89;99477.72;7553637;33;37234;-83
2023/09/23 10:35:23;;;;;;;7.00;4.65;;;;;;;19.78;67.30;99465.31;7548693;33;184308;-82
2023/09/23 10:39:44;;;;;;;5.60;3.83;;;;;;;19.39;67.71;99476.56;7555163;33;40707;-83
2023/09/23 10:44:04;;;;;;;6.28;4.35;;;;;;;19.40;67.65;99486.47;7554787;33;37968;-84
2023/09/23 10:48:21;;;;;;;7.68;4.72;;;;;;;19.14;67.64;99486.66;7555080;33;37201;-84
2023/09/23 10:52:38;;;;;;;6.10;4.47;;;;;;;18.22;70.94;99488.13;7554614;33;40676;-83
2023/09/23 10:57:00;;;;;;;7.72;4.95;;;;;;;18.69;69.79;99499.13;7553878;33;40139;-83
2023/09/23 11:01:24;;;;;;;6.93;4.45;;;;;;;18.73;70.00;99489.03;7551785;33;38006;-83
2023/09/23 11:05:43;;;;;;;9.43;5.70;;;;;;;18.89;68.84;99481.00;7554429;33;38001;-82
2023/09/23 11:10:00;;;;;;;9.00;5.95;;;;;;;18.24;70.33;99504.38;7553114;33;39849;-83
2023/09/23 11:14:19;;;;;;;9.63;5.80;;;;;;;18.26;70.29;99494.59;7552466;33;40753;-82
2023/09/23 11:18:37;;;;;;;8.73;6.05;;;;;;;18.26;70.97;99513.13;7552967;33;37953;-82
2023/09/23 11:23:03;;;;;;;7.87;5.47;;;;;;;18.20;70.87;99506.97;7553646;33;37824;-83
2023/09/23 11:27:24;;;;;;;10.38;5.55;;;;;;;18.26;71.94;99526.91;7553867;33;39177;-83
2023/09/23 11:31:40;;;;;;;9.43;6.03;;;;;;;18.52;70.27;99532.34;7553497;33;40873;-83
2023/09/23 11:35:57;;;;;;;8.13;5.65;;;;;;;18.52;70.54;99537.84;7553256;33;37861;-83
2023/09/23 11:40:17;;;;;;;8.88;5.30;;;;;;;18.67;69.56;99539.25;7553401;33;37934;-81
2023/09/23 11:44:34;;;;;;;9.35;5.18;;;;;;;18.84;68.67;99528.16;7538294;33;39057;-82
2023/09/23 11:48:50;;;;;;;7.03;4.68;;;;;;;18.96;68.18;99521.91;7552013;33;40890;-82
2023/09/23 11:53:07;;;;;;;6.60;4.70;;;;;;;18.86;68.18;99519.53;7552044;33;38648;-76
2023/09/23 11:57:23;;;;;;;8.23;5.40;;;;;;;19.17;67.85;99515.59;7553579;33;37378;-81
2023/09/23 12:01:40;;;;;;;8.07;4.93;;;;;;;19.01;67.77;99537.50;7552899;33;39165;-81
2023/09/23 12:05:57;;;;;;;7.82;5.40;;;;;;;19.09;67.28;99531.06;7552447;33;40864;-83
2023/09/23 12:10:14;;;;;;;8.43;5.57;;;;;;;18.85;68.16;99543.59;7553366;33;37866;-87
2023/09/23 12:14:30;;;;;;;8.93;5.50;;;;;;;18.78;68.63;99570.84;7553445;33;37044;-87
2023/09/23 12:18:48;;;;;;;9.15;6.05;;;;;;;18.45;69.60;99570.69;7552153;33;40201;-88
2023/09/23 12:23:04;;;;;;;8.43;5.37;;;;;;;18.33;70.32;99572.19;7550757;33;40745;-87
2023/09/23 12:27:21;;;;;;;8.40;5.20;;;;;;;18.60;69.66;99572.09;7553169;33;38738;-77
2023/09/23 12:31:38;;;;;;;8.05;4.57;;;;;;;18.19;71.26;99579.84;7552599;33;37027;-83
2023/09/23 12:35:54;;;;;;;7.53;4.82;;;;;;;18.32;70.51;99591.84;7552525;33;40097;-83
2023/09/23 12:40:11;;;;;;;5.90;4.18;;;;;;;18.25;70.70;99584.06;7552888;33;39852;-86
2023/09/23 12:44:27;;;;;;;5.55;3.90;;;;;;;18.15;70.67;99595.44;7552082;33;37631;-85
2023/09/23 12:48:44;;;;;;;4.80;3.30;;;;;;;18.37;69.61;99591.66;7550350;33;36987;-82
2023/09/23 12:53:02;;;;;;;5.82;3.87;;;;;;;18.70;68.42;99599.34;7551047;33;39917;-80
2023/09/23 12:57:18;;;;;;;5.55;4.00;;;;;;;18.34;69.17;99601.38;7551256;33;39618;-80
2023/09/23 13:01:35;;;;;;;6.05;3.42;;;;;;;17.67;72.30;99607.44;7551390;33;38051;-81
2023/09/23 13:05:52;;;;;;;5.45;3.30;;;;;;;17.41;73.06;99609.03;7551240;33;37690;-80
2023/09/23 13:10:11;;;;;;;4.93;3.33;;;;;;;17.51;72.26;99605.16;7545757;33;39373;-81
2023/09/23 13:14:29;;;;;;;6.85;3.55;;;;;;;17.78;72.01;99600.44;7552278;33;40737;-82
2023/09/23 13:18:46;;;;;;;5.45;3.30;;;;;;;18.28;70.21;99610.16;7552088;33;37877;-82
2023/09/23 13:23:05;;;;;;;5.35;3.20;;;;;;;18.07;70.17;99621.06;7550301;33;38025;-82
2023/09/23 13:27:25;;;;;;;5.57;2.60;;;;;;;18.16;69.58;99635.66;7538755;33;39420;-82
2023/09/23 13:31:41;;;;;;;6.32;2.85;;;;;;;18.11;69.09;99624.78;7542780;33;40008;-82
2023/09/23 13:35:58;;;;;;;3.90;2.30;;;;;;;18.12;69.58;99604.34;7529419;33;37686;-83
2023/09/23 13:40:14;;;;;;;3.47;2.20;;;;;;;18.74;67.85;99601.09;7534956;33;37108;-78
2023/09/23 13:44:31;;;;;;;3.85;2.47;;;;;;;19.18;65.95;99580.75;7555545;33;39328;-80
2023/09/23 13:48:47;;;;;;;8.13;2.60;;;;;;;18.49;67.36;99582.66;7555768;33;40457;-78
2023/09/23 13:53:04;;;;;;;3.85;2.78;;;;;;;18.67;67.21;99598.03;7555511;33;37898;-80
2023/09/23 13:57:21;;;;;;;4.78;2.80;;;;;;;18.76;66.93;99592.47;7555461;33;37075;-80
2023/09/23 14:01:38;;;;;;;5.15;3.50;;;;;;;18.51;67.63;99591.44;7555374;33;39036;-79
2023/09/23 14:05:54;;;;;;;4.20;3.15;;;;;;;18.31;68.44;99607.56;7555124;33;40771;-80
2023/09/23 14:10:10;;;;;;;4.97;3.45;;;;;;;18.05;69.72;99606.81;7555195;33;38846;-81
2023/09/23 14:14:37;;;;;;;5.50;3.60;;;;;;;18.35;68.69;99610.47;7555266;33;37024;-80
2023/09/23 14:18:54;;;;;;;5.05;3.67;;;;;;;18.44;68.03;99629.75;7554972;33;39097;-80
2023/09/23 14:23:11;;;;;;;5.80;3.90;;;;;;;18.35;68.38;99627.03;7554822;33;39995;-80
2023/09/23 14:27:27;;;;;;;4.68;3.25;;;;;;;18.65;67.95;99619.66;7554886;33;37954;-80
2023/09/23 14:31:43;;;;;;;3.87;2.78;;;;;;;18.64;66.49;99612.50;7555178;33;36890;-79
2023/09/23 14:36:00;;;;;;;5.53;3.45;;;;;;;19.00;65.62;99602.16;7554923;33;39976;-80
2023/09/23 14:40:16;;;;;;;3.70;2.55;;;;;;;18.64;66.00;99595.94;7555053;33;39998;-80
2023/09/23 14:44:33;;;;;;;4.50;2.65;;;;;;;18.86;65.67;99597.66;7553841;33;38672;-80
2023/09/23 14:48:49;;;;;;;3.87;2.72;;;;;;;19.13;64.65;99598.34;7554894;33;37428;-80
2023/09/23 14:53:06;;;;;;;3.50;2.10;;;;;;;18.72;65.56;99603.38;7554876;33;38981;-80
2023/09/23 14:57:23;;;;;;;3.53;2.50;;;;;;;18.91;64.72;99608.53;7554749;33;39980;-81
2023/09/23 15:01:39;;;;;;;4.43;2.12;;;;;;;19.04;64.45;99606.69;7554727;33;37672;-80
2023/09/23 15:05:56;;;;;;;4.70;1.80;;;;;;;18.68;65.19;99613.47;7554697;33;37045;-80
2023/09/23 15:10:13;;;;;;;2.90;1.87;;;;;;;19.17;63.88;99607.59;7554737;33;39453;-82
2023/09/23 15:14:29;;;;;;;2.30;1.80;;;;;;;19.25;63.09;99608.69;7554345;33;40058;-81
2023/09/23 15:18:46;;;;;;;3.50;1.90;;;;;;;19.21;63.64;99610.50;7554423;33;37865;-81
2023/09/23 15:23:04;;;;;;;2.40;1.80;;;;;;;19.39;63.40;99598.19;7554428;33;37224;-81
2023/09/23 15:27:22;;;;;;;9.57;2.00;;;;;;;19.36;63.39;99609.09;7554216;33;39855;-81
2023/09/23 15:31:40;;;;;;;5.40;1.95;;;;;;;19.44;62.81;99600.75;7554496;33;40853;-81
2023/09/23 15:35:57;;;;;;;2.37;1.92;;;;;;;19.56;62.30;99601.97;7554084;33;37911;-81
2023/09/23 15:40:16;;;;;;;2.78;2.10;;;;;;;19.63;61.96;99580.13;7554101;33;37931;-82
2023/09/23 15:44:33;;;;;;;3.62;1.85;;;;;;;19.46;62.66;99594.88;7554239;33;39433;-81
2023/09/23 15:48:50;;;;;;;3.15;2.17;;;;;;;19.18;63.74;99611.97;7554172;33;39933;-81
2023/09/23 15:53:06;;;;;;;3.05;2.10;;;;;;;19.15;63.60;99612.63;7543186;33;37828;-85
2023/09/23 15:57:23;;;;;;;3.95;2.03;;;;;;;19.30;63.29;99625.88;7528992;33;37949;-83
2023/09/23 16:01:39;;;;;;;3.78;1.90;;;;;;;19.27;63.41;99622.97;7540311;33;39382;-81
2023/09/23 16:05:56;;;;;;;2.67;1.65;;;;;;;19.11;63.89;99625.50;7540202;33;40860;-82
2023/09/23 16:10:12;;;;;;;3.25;1.87;;;;;;;18.95;64.51;99626.06;7534561;33;38096;-83
2023/09/23 16:14:28;;;;;;;2.45;1.83;;;;;;;18.84;64.85;99624.81;7548594;33;38151;-82
2023/09/23 16:18:45;;;;;;;2.80;2.05;;;;;;;19.30;63.45;99622.31;7553553;33;40119;-83
2023/09/23 16:23:02;;;;;;;3.30;2.17;;;;;;;18.77;65.04;99619.75;7552363;33;40121;-82
2023/09/23 16:27:21;;;;;;;3.10;1.95;;;;;;;18.36;66.61;99626.69;7528973;33;37989;-82
2023/09/23 16:31:37;;;;;;;6.85;1.83;;;;;;;18.47;66.56;99629.94;7528029;33;38015;-82
2023/09/23 16:35:54;;;;;;;2.03;1.70;;;;;;;18.66;65.68;99645.31;7527557;33;39055;-82
2023/09/23 16:40:11;;;;;;;2.28;1.55;;;;;;;18.68;65.45;99643.84;7527716;33;40891;-83
2023/09/23 16:44:27;;;;;;;4.00;1.50;;;;;;;18.84;65.16;99637.81;7527301;33;38611;-83
2023/09/23 16:48:43;;;;;;;2.08;1.35;;;;;;;18.74;65.46;99644.47;7527397;33;38297;-82
2023/09/23 16:53:00;;;;;;;9.90;1.50;;;;;;;18.67;66.09;99656.03;7552716;33;40231;-81
2023/09/23 16:57:20;;;;;;;1.40;1.20;;;;;;;18.79;65.30;99643.50;7552713;33;40714;-83
2023/09/23 17:01:37;;;;;;;1.58;1.20;;;;;;;18.93;65.04;99652.38;7549598;33;38726;-84
2023/09/23 17:05:55;;;;;;;2.78;1.70;;;;;;;18.91;64.80;99655.47;7550632;33;37020;-83
2023/09/23 17:10:12;;;;;;;3.12;1.60;;;;;;;18.73;65.46;99667.69;7555158;33;40065;-84
2023/09/23 17:14:29;;;;;;;6.15;1.60;;;;;;;18.99;64.55;99673.19;7556255;33;41124;-88
2023/09/23 17:18:46;;;;;;;3.30;1.37;;;;;;;18.77;65.00;99686.03;7557316;33;38756;-86
2023/09/23 17:23:03;;;;;;;5.55;1.67;;;;;;;18.92;64.37;99681.13;7557572;33;37811;-86
2023/09/23 17:27:19;;;;;;;4.85;1.60;;;;;;;18.63;65.01;99690.97;7557162;33;40580;-78
2023/09/23 17:31:36;;;;;;;2.58;1.60;;;;;;;18.62;64.48;99686.56;7557411;33;40290;-83
2023/09/23 17:35:59;;;;;;;1.92;1.30;;;;;;;18.04;66.20;99707.22;7555438;33;37908;-84
2023/09/23 17:40:16;;;;;;;2.37;1.57;;;;;;;18.10;65.37;99720.53;7555878;33;38560;-84
2023/09/23 17:44:32;;;;;;;1.98;1.45;;;;;;;18.54;64.04;99724.09;7555866;33;39244;-84
2023/09/23 17:48:52;;;;;;;2.05;1.50;;;;;;;18.37;64.19;99718.59;7555537;33;40942;-85
2023/09/23 17:53:09;;;;;;;3.85;1.75;;;;;;;18.61;64.20;99712.56;7554645;33;38667;-84
2023/09/23 17:57:27;;;;;;;2.67;1.80;;;;;;;18.28;65.89;99709.50;7554574;33;38721;-84
2023/09/23 18:01:45;;;;;;;2.55;1.50;;;;;;;18.67;64.50;99705.72;7553318;33;40881;-81
2023/09/23 18:06:02;;;;;;;5.18;1.98;;;;;;;18.85;63.88;99702.94;7554318;33;40886;-81
2023/09/23 18:10:19;;;;;;;4.07;1.95;;;;;;;18.88;63.45;99691.25;7554359;33;37951;-81
2023/09/23 18:14:35;;;;;;;3.35;2.15;;;;;;;18.84;63.97;99693.03;7554428;33;37824;-81
2023/09/23 18:18:52;;;;;;;2.75;1.83;;;;;;;18.81;64.48;99683.44;7552840;33;39054;-81
2023/09/23 18:23:25;;;;;;;3.22;2.00;;;;;;;19.06;64.30;99683.72;7554372;33;40921;-82
2023/09/23 18:27:45;;;;;;;3.40;2.00;;;;;;;18.85;65.26;99678.09;7552890;33;37905;-83
2023/09/23 18:32:07;;;;;;;8.98;2.75;;;;;;;19.02;64.42;99682.75;7554016;33;37220;-83
2023/09/23 18:36:27;;;;;;;2.92;1.83;;;;;;;18.92;65.06;99675.63;7554050;33;39050;-78
2023/09/23 18:40:46;;;;;;;3.83;2.00;;;;;;;19.06;64.85;99672.66;7553531;33;41023;-80
2023/09/23 18:45:05;;;;;;;3.97;2.28;;;;;;;19.02;64.64;99678.00;7553939;33;37873;-80
2023/09/23 18:49:23;;;;;;;2.10;1.90;;;;;;;18.94;64.60;99671.41;7552034;33;37912;-81
2023/09/23 18:53:40;;;;;;;4.18;2.35;;;;;;;18.68;66.02;99668.69;7552480;33;39109;-81
2023/09/23 18:57:56;;;;;;;4.87;2.40;;;;;;;18.53;67.14;99666.47;7552020;33;39716;-81
2023/09/23 19:02:13;;;;;;;3.50;2.10;;;;;;;18.71;66.25;99659.75;7553716;33;37884;-81
2023/09/23 19:06:30;;;;;;;3.17;2.15;;;;;;;18.57;66.05;99668.25;7553802;33;37820;-82
2023/09/23 19:10:47;;;;;;;3.70;2.10;;;;;;;18.75;65.20;99657.94;7553661;33;40136;-81
2023/09/23 19:15:07;;;;;;;3.92;2.58;;;;;;;18.62;65.60;99663.69;7553829;33;40528;-83
2023/09/23 19:19:24;;;;;;;6.18;2.70;;;;;;;18.50;65.85;99667.91;7553681;33;37679;-80
2023/09/23 19:23:42;;;;;;;2.80;2.15;;;;;;;18.37;65.81;99669.72;7553708;33;37894;-81
2023/09/23 19:28:03;;;;;;;;;;;;;;;18.31;66.17;99672.97;7552133;33;40365;-82
2023/09/23 19:32:20;;;;;;;5.15;2.67;;;;;;;18.10;66.91;99683.88;7553240;33;39986;-81
2023/09/23 19:36:37;;;;;;;6.30;2.70;;;;;;;18.29;65.82;99689.88;7552948;33;38217;-81
2023/09/23 19:40:53;;;;;;;4.30;2.60;;;;;;;18.42;65.21;99709.31;7554203;33;37077;-80
2023/09/23 19:45:11;;;;;;;4.50;2.92;;;;;;;18.25;65.73;99721.19;7553653;33;40306;-81
2023/09/23 19:49:30;;;;;;;4.90;2.90;;;;;;;17.62;68.05;99732.44;7551233;33;40028;-81
2023/09/23 19:53:46;;;;;;;5.93;2.75;;;;;;;17.68;67.91;99722.06;7550334;33;38739;-82
2023/09/23 19:58:06;;;;;;;5.90;3.00;;;;;;;17.95;66.90;99721.00;7553210;33;37839;-81
2023/09/23 20:02:24;;;;;;;3.70;2.70;;;;;;;17.47;68.56;99725.41;7553098;33;40188;-82
2023/09/23 20:06:41;;;;;;;4.75;3.00;;;;;;;17.76;67.41;99721.28;7552956;33;38766;-81
2023/09/23 20:11:01;;;;;;;5.80;2.55;;;;;;;17.99;66.57;99717.28;7552844;33;37706;-80
2023/09/23 20:15:24;;;;;;;4.12;2.70;;;;;;;17.82;66.97;99715.28;7552810;33;36659;-81